sensor_id;sensor_type;location;lat;lon;timestamp;pressure;altitude;pressure_sealevel;temperature;humidity
16525;BME280;8375;33.594;-117.718;2022-12-10T00:01:45;100705.94;;;15.00;55.34
16525;BME280;8375;33.594;-117.718;2022-12-10T00:04:17;100705.41;;;14.96;54.94
16525;BME280;8375;33.594;-117.718;2022-12-10T00:06:47;100708.03;;;14.96;56.20
16525;BME280;8375;33.594;-117.718;2022-12-10T00:09:16;100697.53;;;14.87;53.95
16525;BME280;8375;33.594;-117.718;2022-12-10T00:11:46;100697.78;;;14.74;52.63
16525;BME280;8375;33.594;-117.718;2022-12-10T00:14:15;100697.59;;;14.65;52.69
16525;BME280;8375;33.594;-117.718;2022-12-10T00:16:44;100697.00;;;14.52;52.51
16525;BME280;8375;33.594;-117.718;2022-12-10T00:19:13;100687.84;;;14.36;53.76
16525;BME280;8375;33.594;-117.718;2022-12-10T00:21:43;100702.50;;;14.28;54.76
16525;BME280;8375;33.594;-117.718;2022-12-10T00:24:13;100700.56;;;14.20;55.18
16525;BME280;8375;33.594;-117.718;2022-12-10T00:26:42;100696.94;;;14.11;55.92
16525;BME280;8375;33.594;-117.718;2022-12-10T00:29:12;100702.38;;;13.98;56.77
16525;BME280;8375;33.594;-117.718;2022-12-10T00:31:41;100704.09;;;13.88;57.49
16525;BME280;8375;33.594;-117.718;2022-12-10T00:34:11;100709.47;;;13.75;58.45
16525;BME280;8375;33.594;-117.718;2022-12-10T00:36:45;100710.94;;;13.68;58.86
16525;BME280;8375;33.594;-117.718;2022-12-10T00:39:15;100710.03;;;13.57;59.04
16525;BME280;8375;33.594;-117.718;2022-12-10T00:41:44;100712.44;;;13.49;58.96
16525;BME280;8375;33.594;-117.718;2022-12-10T00:44:13;100709.38;;;13.44;59.32
16525;BME280;8375;33.594;-117.718;2022-12-10T00:46:43;100714.47;;;13.34;59.85
16525;BME280;8375;33.594;-117.718;2022-12-10T00:49:11;100721.13;;;13.27;60.94
16525;BME280;8375;33.594;-117.718;2022-12-10T00:51:40;100721.59;;;13.20;61.26
16525;BME280;8375;33.594;-117.718;2022-12-10T00:54:11;100723.19;;;13.12;61.95
16525;BME280;8375;33.594;-117.718;2022-12-10T00:56:40;100714.06;;;13.06;62.50
16525;BME280;8375;33.594;-117.718;2022-12-10T00:59:09;100709.47;;;12.98;62.94
16525;BME280;8375;33.594;-117.718;2022-12-10T01:01:39;100721.31;;;12.91;63.32
16525;BME280;8375;33.594;-117.718;2022-12-10T01:04:10;100720.94;;;12.84;63.30
16525;BME280;8375;33.594;-117.718;2022-12-10T01:06:42;100709.81;;;12.82;66.34
16525;BME280;8375;33.594;-117.718;2022-12-10T01:09:16;100706.41;;;12.70;65.92
16525;BME280;8375;33.594;-117.718;2022-12-10T01:11:47;100704.06;;;12.56;66.09
16525;BME280;8375;33.594;-117.718;2022-12-10T01:14:22;100712.69;;;12.45;66.45
16525;BME280;8375;33.594;-117.718;2022-12-10T01:16:55;100709.13;;;12.35;67.48
16525;BME280;8375;33.594;-117.718;2022-12-10T01:19:25;100705.56;;;12.24;68.04
16525;BME280;8375;33.594;-117.718;2022-12-10T01:21:55;100704.50;;;12.15;68.22
16525;BME280;8375;33.594;-117.718;2022-12-10T01:24:27;100711.59;;;12.13;69.97
16525;BME280;8375;33.594;-117.718;2022-12-10T01:26:57;100708.84;;;12.03;69.79
16525;BME280;8375;33.594;-117.718;2022-12-10T01:29:27;100711.28;;;11.94;69.55
16525;BME280;8375;33.594;-117.718;2022-12-10T01:31:57;100713.84;;;11.82;69.53
16525;BME280;8375;33.594;-117.718;2022-12-10T01:34:27;100710.28;;;11.72;70.34
16525;BME280;8375;33.594;-117.718;2022-12-10T01:36:56;100709.78;;;11.67;70.40
16525;BME280;8375;33.594;-117.718;2022-12-10T02:40:35;100729.91;;;10.38;81.82
16525;BME280;8375;33.594;-117.718;2022-12-10T02:43:06;100726.00;;;10.33;81.80
16525;BME280;8375;33.594;-117.718;2022-12-10T02:45:37;100735.72;;;10.29;81.88
16525;BME280;8375;33.594;-117.718;2022-12-10T02:48:07;100739.47;;;10.25;82.14
16525;BME280;8375;33.594;-117.718;2022-12-10T02:50:36;100746.53;;;10.23;82.33
16525;BME280;8375;33.594;-117.718;2022-12-10T02:53:04;100745.06;;;10.19;82.31
16525;BME280;8375;33.594;-117.718;2022-12-10T02:55:44;100749.94;;;10.10;82.38
16525;BME280;8375;33.594;-117.718;2022-12-10T02:58:20;100759.28;;;10.13;82.64
16525;BME280;8375;33.594;-117.718;2022-12-10T03:00:54;100761.63;;;10.03;83.19
16525;BME280;8375;33.594;-117.718;2022-12-10T03:03:37;100763.41;;;10.03;83.67
16525;BME280;8375;33.594;-117.718;2022-12-10T03:06:16;100767.22;;;9.97;83.61
16525;BME280;8375;33.594;-117.718;2022-12-10T03:08:49;100767.44;;;9.94;84.07
16525;BME280;8375;33.594;-117.718;2022-12-10T03:11:22;100765.78;;;9.93;83.85
16525;BME280;8375;33.594;-117.718;2022-12-10T03:13:57;100768.69;;;9.88;84.27
16525;BME280;8375;33.594;-117.718;2022-12-10T03:16:31;100762.84;;;9.84;84.13
16525;BME280;8375;33.594;-117.718;2022-12-10T03:19:05;100772.59;;;9.81;84.17
16525;BME280;8375;33.594;-117.718;2022-12-10T03:21:37;100770.41;;;9.75;84.44
16525;BME280;8375;33.594;-117.718;2022-12-10T03:24:08;100765.59;;;9.68;84.74
16525;BME280;8375;33.594;-117.718;2022-12-10T03:26:40;100770.88;;;9.67;85.13
16525;BME280;8375;33.594;-117.718;2022-12-10T03:29:10;100774.41;;;9.66;85.35
16525;BME280;8375;33.594;-117.718;2022-12-10T03:31:41;100776.38;;;9.62;85.94
16525;BME280;8375;33.594;-117.718;2022-12-10T03:34:11;100782.38;;;9.63;88.25
16525;BME280;8375;33.594;-117.718;2022-12-10T03:36:41;100783.22;;;9.63;88.51
16525;BME280;8375;33.594;-117.718;2022-12-10T03:39:10;100776.56;;;9.59;87.54
16525;BME280;8375;33.594;-117.718;2022-12-10T03:41:41;100778.16;;;9.47;87.39
16525;BME280;8375;33.594;-117.718;2022-12-10T03:44:09;100773.28;;;9.43;87.35
16525;BME280;8375;33.594;-117.718;2022-12-10T03:46:38;100770.34;;;9.34;87.70
16525;BME280;8375;33.594;-117.718;2022-12-10T03:49:07;100770.81;;;9.27;88.08
16525;BME280;8375;33.594;-117.718;2022-12-10T03:51:36;100769.06;;;9.27;87.82
16525;BME280;8375;33.594;-117.718;2022-12-10T03:54:05;100775.34;;;9.23;88.09
16525;BME280;8375;33.594;-117.718;2022-12-10T03:56:33;100787.28;;;9.25;89.67
16525;BME280;8375;33.594;-117.718;2022-12-10T03:59:04;100790.97;;;9.21;88.96
16525;BME280;8375;33.594;-117.718;2022-12-10T04:01:32;100788.97;;;9.12;89.18
16525;BME280;8375;33.594;-117.718;2022-12-10T04:04:01;100788.22;;;9.10;89.52
16525;BME280;8375;33.594;-117.718;2022-12-10T04:06:31;100786.75;;;9.06;89.58
16525;BME280;8375;33.594;-117.718;2022-12-10T04:08:59;100780.94;;;9.02;90.04
16525;BME280;8375;33.594;-117.718;2022-12-10T04:11:28;100775.47;;;9.07;90.86
16525;BME280;8375;33.594;-117.718;2022-12-10T04:13:56;100783.59;;;9.01;90.87
16525;BME280;8375;33.594;-117.718;2022-12-10T04:16:44;100780.09;;;9.02;91.17
16525;BME280;8375;33.594;-117.718;2022-12-10T04:19:13;100777.59;;;9.00;91.22
16525;BME280;8375;33.594;-117.718;2022-12-10T04:21:43;100786.50;;;8.96;91.11
16525;BME280;8375;33.594;-117.718;2022-12-10T04:24:30;100792.66;;;8.93;91.49
16525;BME280;8375;33.594;-117.718;2022-12-10T04:27:19;100796.75;;;8.98;92.87
16525;BME280;8375;33.594;-117.718;2022-12-10T04:29:49;100796.84;;;8.96;93.31
16525;BME280;8375;33.594;-117.718;2022-12-10T04:32:20;100804.69;;;8.94;94.36
16525;BME280;8375;33.594;-117.718;2022-12-10T04:34:48;100800.53;;;8.92;94.06
16525;BME280;8375;33.594;-117.718;2022-12-10T04:37:18;100788.03;;;8.84;93.71
16525;BME280;8375;33.594;-117.718;2022-12-10T04:39:47;100788.97;;;8.83;93.82
16525;BME280;8375;33.594;-117.718;2022-12-10T04:42:17;100791.56;;;8.83;94.12
16525;BME280;8375;33.594;-117.718;2022-12-10T04:44:46;100793.22;;;8.84;94.48
16525;BME280;8375;33.594;-117.718;2022-12-10T04:47:15;100796.19;;;8.78;94.32
16525;BME280;8375;33.594;-117.718;2022-12-10T04:49:45;100795.00;;;8.69;93.71
16525;BME280;8375;33.594;-117.718;2022-12-10T04:52:15;100797.84;;;8.64;93.81
16525;BME280;8375;33.594;-117.718;2022-12-10T04:54:44;100799.78;;;8.61;93.75
16525;BME280;8375;33.594;-117.718;2022-12-10T04:57:13;100801.72;;;8.57;93.99
16525;BME280;8375;33.594;-117.718;2022-12-10T04:59:41;100802.16;;;8.49;94.09
16525;BME280;8375;33.594;-117.718;2022-12-10T05:02:10;100799.81;;;8.45;94.08
16525;BME280;8375;33.594;-117.718;2022-12-10T05:04:39;100806.94;;;8.41;94.04
16525;BME280;8375;33.594;-117.718;2022-12-10T05:07:09;100805.34;;;8.39;94.55
16525;BME280;8375;33.594;-117.718;2022-12-10T05:09:38;100809.97;;;8.48;96.84
16525;BME280;8375;33.594;-117.718;2022-12-10T05:12:07;100814.81;;;8.54;97.72
16525;BME280;8375;33.594;-117.718;2022-12-10T05:14:36;100813.59;;;8.45;96.87
16525;BME280;8375;33.594;-117.718;2022-12-10T05:17:04;100817.34;;;8.40;96.87
16525;BME280;8375;33.594;-117.718;2022-12-10T05:19:33;100816.88;;;8.33;96.22
16525;BME280;8375;33.594;-117.718;2022-12-10T05:22:02;100817.88;;;8.30;96.27
16525;BME280;8375;33.594;-117.718;2022-12-10T05:24:49;100821.50;;;8.28;96.89
16525;BME280;8375;33.594;-117.718;2022-12-10T05:27:17;100815.47;;;8.27;96.66
16525;BME280;8375;33.594;-117.718;2022-12-10T05:29:46;100818.06;;;8.27;96.89
16525;BME280;8375;33.594;-117.718;2022-12-10T05:32:15;100804.47;;;8.24;95.79
16525;BME280;8375;33.594;-117.718;2022-12-10T05:34:43;100807.03;;;8.09;94.82
16525;BME280;8375;33.594;-117.718;2022-12-10T05:37:12;100810.94;;;8.00;94.45
16525;BME280;8375;33.594;-117.718;2022-12-10T05:39:40;100812.97;;;7.95;94.11
16525;BME280;8375;33.594;-117.718;2022-12-10T05:42:11;100807.09;;;7.91;94.57
16525;BME280;8375;33.594;-117.718;2022-12-10T05:44:39;100815.88;;;7.89;95.00
16525;BME280;8375;33.594;-117.718;2022-12-10T05:47:08;100809.78;;;7.90;94.94
16525;BME280;8375;33.594;-117.718;2022-12-10T05:49:37;100806.28;;;7.91;94.59
16525;BME280;8375;33.594;-117.718;2022-12-10T05:52:05;100807.38;;;7.87;94.94
16525;BME280;8375;33.594;-117.718;2022-12-10T05:54:35;100809.38;;;7.82;94.52
16525;BME280;8375;33.594;-117.718;2022-12-10T05:57:03;100810.31;;;7.81;95.62
16525;BME280;8375;33.594;-117.718;2022-12-10T05:59:34;100815.66;;;7.77;95.96
16525;BME280;8375;33.594;-117.718;2022-12-10T06:02:02;100800.97;;;7.78;96.15
16525;BME280;8375;33.594;-117.718;2022-12-10T06:04:31;100799.97;;;7.81;97.42
16525;BME280;8375;33.594;-117.718;2022-12-10T06:07:00;100808.72;;;7.78;97.44
16525;BME280;8375;33.594;-117.718;2022-12-10T06:09:28;100806.97;;;7.78;97.29
16525;BME280;8375;33.594;-117.718;2022-12-10T06:11:57;100812.31;;;7.75;97.55
16525;BME280;8375;33.594;-117.718;2022-12-10T06:14:25;100818.63;;;7.70;97.01
16525;BME280;8375;33.594;-117.718;2022-12-10T06:16:56;100819.56;;;7.69;97.47
16525;BME280;8375;33.594;-117.718;2022-12-10T06:19:24;100820.47;;;7.68;97.42
16525;BME280;8375;33.594;-117.718;2022-12-10T06:21:53;100822.31;;;7.66;97.37
16525;BME280;8375;33.594;-117.718;2022-12-10T06:24:22;100827.66;;;7.62;97.18
16525;BME280;8375;33.594;-117.718;2022-12-10T06:26:50;100824.31;;;7.60;97.63
16525;BME280;8375;33.594;-117.718;2022-12-10T06:29:19;100834.00;;;7.57;97.95
16525;BME280;8375;33.594;-117.718;2022-12-10T06:31:47;100834.75;;;7.59;98.66
16525;BME280;8375;33.594;-117.718;2022-12-10T06:34:18;100836.59;;;7.57;98.23
16525;BME280;8375;33.594;-117.718;2022-12-10T06:36:46;100834.16;;;7.54;97.80
16525;BME280;8375;33.594;-117.718;2022-12-10T06:39:15;100837.50;;;7.56;98.26
16525;BME280;8375;33.594;-117.718;2022-12-10T06:41:43;100842.50;;;7.59;98.87
16525;BME280;8375;33.594;-117.718;2022-12-10T06:44:12;100849.72;;;7.52;97.75
16525;BME280;8375;33.594;-117.718;2022-12-10T06:46:41;100845.31;;;7.38;97.03
16525;BME280;8375;33.594;-117.718;2022-12-10T06:49:10;100844.72;;;7.33;97.18
16525;BME280;8375;33.594;-117.718;2022-12-10T06:51:40;100848.22;;;7.32;97.07
16525;BME280;8375;33.594;-117.718;2022-12-10T06:54:09;100858.78;;;7.27;97.11
16525;BME280;8375;33.594;-117.718;2022-12-10T06:56:37;100852.97;;;7.24;97.33
16525;BME280;8375;33.594;-117.718;2022-12-10T06:59:06;100838.53;;;7.19;97.40
16525;BME280;8375;33.594;-117.718;2022-12-10T07:01:35;100846.28;;;7.19;97.38
16525;BME280;8375;33.594;-117.718;2022-12-10T07:04:03;100843.78;;;7.18;98.04
16525;BME280;8375;33.594;-117.718;2022-12-10T07:06:32;100841.13;;;7.19;98.29
16525;BME280;8375;33.594;-117.718;2022-12-10T07:09:02;100840.69;;;7.27;99.55
16525;BME280;8375;33.594;-117.718;2022-12-10T07:11:31;100848.72;;;7.23;99.67
16525;BME280;8375;33.594;-117.718;2022-12-10T07:14:00;100859.03;;;7.23;100.00
16525;BME280;8375;33.594;-117.718;2022-12-10T07:16:29;100854.94;;;7.18;99.86
16525;BME280;8375;33.594;-117.718;2022-12-10T07:19:01;100854.19;;;7.16;99.61
16525;BME280;8375;33.594;-117.718;2022-12-10T07:21:31;100867.25;;;7.13;99.30
16525;BME280;8375;33.594;-117.718;2022-12-10T07:24:03;100880.34;;;7.10;99.33
16525;BME280;8375;33.594;-117.718;2022-12-10T07:26:34;100878.66;;;7.09;99.55
16525;BME280;8375;33.594;-117.718;2022-12-10T07:29:04;100868.81;;;7.00;99.75
16525;BME280;8375;33.594;-117.718;2022-12-10T07:31:33;100865.47;;;6.98;99.76
16525;BME280;8375;33.594;-117.718;2022-12-10T07:34:01;100870.63;;;6.98;99.94
16525;BME280;8375;33.594;-117.718;2022-12-10T07:36:30;100864.56;;;6.99;99.89
16525;BME280;8375;33.594;-117.718;2022-12-10T07:38:59;100867.44;;;6.93;99.81
16525;BME280;8375;33.594;-117.718;2022-12-10T07:41:29;100860.63;;;6.92;99.21
16525;BME280;8375;33.594;-117.718;2022-12-10T07:43:58;100859.78;;;6.91;99.11
16525;BME280;8375;33.594;-117.718;2022-12-10T07:46:28;100860.03;;;6.86;98.98
16525;BME280;8375;33.594;-117.718;2022-12-10T07:48:58;100856.59;;;6.86;98.78
16525;BME280;8375;33.594;-117.718;2022-12-10T07:51:27;100851.75;;;6.80;96.24
16525;BME280;8375;33.594;-117.718;2022-12-10T07:53:56;100847.91;;;6.71;95.80
16525;BME280;8375;33.594;-117.718;2022-12-10T07:56:25;100840.00;;;6.74;97.08
16525;BME280;8375;33.594;-117.718;2022-12-10T07:58:55;100843.50;;;6.73;97.28
16525;BME280;8375;33.594;-117.718;2022-12-10T08:01:25;100845.38;;;6.69;97.77
16525;BME280;8375;33.594;-117.718;2022-12-10T08:03:55;100840.22;;;6.69;98.29
16525;BME280;8375;33.594;-117.718;2022-12-10T08:06:25;100842.94;;;6.66;98.30
16525;BME280;8375;33.594;-117.718;2022-12-10T08:08:55;100843.78;;;6.67;99.09
16525;BME280;8375;33.594;-117.718;2022-12-10T08:11:24;100843.78;;;6.67;99.57
16525;BME280;8375;33.594;-117.718;2022-12-10T08:13:54;100837.72;;;6.68;100.00
16525;BME280;8375;33.594;-117.718;2022-12-10T08:16:24;100841.28;;;6.65;100.00
16525;BME280;8375;33.594;-117.718;2022-12-10T08:18:54;100841.22;;;6.67;100.00
16525;BME280;8375;33.594;-117.718;2022-12-10T08:21:24;100836.97;;;6.66;100.00
16525;BME280;8375;33.594;-117.718;2022-12-10T08:23:54;100843.19;;;6.62;100.00
16525;BME280;8375;33.594;-117.718;2022-12-10T08:26:24;100837.13;;;6.63;100.00
16525;BME280;8375;33.594;-117.718;2022-12-10T08:28:56;100841.38;;;6.64;100.00
16525;BME280;8375;33.594;-117.718;2022-12-10T08:31:26;100833.78;;;6.60;100.00
16525;BME280;8375;33.594;-117.718;2022-12-10T08:33:55;100835.66;;;6.57;100.00
16525;BME280;8375;33.594;-117.718;2022-12-10T08:36:23;100830.59;;;6.55;100.00
16525;BME280;8375;33.594;-117.718;2022-12-10T08:38:52;100831.66;;;6.51;100.00
16525;BME280;8375;33.594;-117.718;2022-12-10T08:41:21;100830.06;;;6.49;100.00
16525;BME280;8375;33.594;-117.718;2022-12-10T08:43:52;100826.56;;;6.50;100.00
16525;BME280;8375;33.594;-117.718;2022-12-10T08:46:23;100824.84;;;6.50;100.00
16525;BME280;8375;33.594;-117.718;2022-12-10T08:48:52;100817.00;;;6.52;100.00
16525;BME280;8375;33.594;-117.718;2022-12-10T08:51:21;100817.84;;;6.52;99.79
16525;BME280;8375;33.594;-117.718;2022-12-10T08:53:50;100825.00;;;6.47;99.32
16525;BME280;8375;33.594;-117.718;2022-12-10T08:56:20;100821.81;;;6.42;98.81
16525;BME280;8375;33.594;-117.718;2022-12-10T08:58:49;100804.13;;;6.34;98.25
16525;BME280;8375;33.594;-117.718;2022-12-10T09:01:19;100808.06;;;6.24;98.06
16525;BME280;8375;33.594;-117.718;2022-12-10T09:03:49;100808.34;;;6.18;97.63
16525;BME280;8375;33.594;-117.718;2022-12-10T09:06:20;100801.78;;;6.12;97.66
16525;BME280;8375;33.594;-117.718;2022-12-10T09:08:53;100799.47;;;6.06;97.74
16525;BME280;8375;33.594;-117.718;2022-12-10T09:11:24;100796.00;;;6.07;97.69
16525;BME280;8375;33.594;-117.718;2022-12-10T09:13:55;100797.53;;;6.11;97.79
16525;BME280;8375;33.594;-117.718;2022-12-10T09:16:28;100793.28;;;6.10;98.04
16525;BME280;8375;33.594;-117.718;2022-12-10T09:19:00;100786.66;;;6.04;97.90
16525;BME280;8375;33.594;-117.718;2022-12-10T09:21:30;100792.31;;;5.93;98.39
16525;BME280;8375;33.594;-117.718;2022-12-10T09:24:00;100788.41;;;5.84;98.72
16525;BME280;8375;33.594;-117.718;2022-12-10T09:26:29;100791.09;;;5.83;98.97
16525;BME280;8375;33.594;-117.718;2022-12-10T09:28:58;100787.75;;;5.81;98.53
16525;BME280;8375;33.594;-117.718;2022-12-10T09:31:28;100787.81;;;5.79;99.17
16525;BME280;8375;33.594;-117.718;2022-12-10T09:33:59;100789.41;;;5.82;99.88
16525;BME280;8375;33.594;-117.718;2022-12-10T09:36:29;100787.66;;;5.82;100.00
16525;BME280;8375;33.594;-117.718;2022-12-10T09:38:58;100793.66;;;5.83;99.84
16525;BME280;8375;33.594;-117.718;2022-12-10T09:41:52;100794.94;;;6.11;100.00
16525;BME280;8375;33.594;-117.718;2022-12-10T09:44:34;100796.81;;;6.07;100.00
16525;BME280;8375;33.594;-117.718;2022-12-10T09:47:08;100802.47;;;5.96;99.93
16525;BME280;8375;33.594;-117.718;2022-12-10T09:49:55;100800.34;;;5.87;99.60
16525;BME280;8375;33.594;-117.718;2022-12-10T09:52:29;100806.06;;;6.11;100.00
16525;BME280;8375;33.594;-117.718;2022-12-10T09:55:05;100807.69;;;6.14;100.00
16525;BME280;8375;33.594;-117.718;2022-12-10T09:57:40;100805.25;;;6.28;100.00
16525;BME280;8375;33.594;-117.718;2022-12-10T10:00:20;100821.47;;;6.13;100.00
16525;BME280;8375;33.594;-117.718;2022-12-10T10:02:50;100812.53;;;6.20;100.00
16525;BME280;8375;33.594;-117.718;2022-12-10T10:05:25;100812.09;;;6.12;100.00
16525;BME280;8375;33.594;-117.718;2022-12-10T10:07:57;100819.53;;;5.99;100.00
16525;BME280;8375;33.594;-117.718;2022-12-10T10:10:30;100821.91;;;5.84;99.18
16525;BME280;8375;33.594;-117.718;2022-12-10T10:13:09;100816.53;;;5.71;99.41
16525;BME280;8375;33.594;-117.718;2022-12-10T10:15:42;100817.63;;;5.66;99.51
16525;BME280;8375;33.594;-117.718;2022-12-10T10:18:16;100814.72;;;5.73;100.00
16525;BME280;8375;33.594;-117.718;2022-12-10T10:20:49;100817.00;;;5.80;100.00
16525;BME280;8375;33.594;-117.718;2022-12-10T10:23:19;100809.47;;;5.75;100.00
16525;BME280;8375;33.594;-117.718;2022-12-10T10:25:48;100811.50;;;5.68;100.00
16525;BME280;8375;33.594;-117.718;2022-12-10T10:28:19;100814.63;;;5.75;100.00
16525;BME280;8375;33.594;-117.718;2022-12-10T10:30:51;100818.03;;;5.76;100.00
16525;BME280;8375;33.594;-117.718;2022-12-10T10:33:21;100826.34;;;5.63;98.48
16525;BME280;8375;33.594;-117.718;2022-12-10T10:35:54;100824.94;;;5.56;97.51
16525;BME280;8375;33.594;-117.718;2022-12-10T10:38:27;100814.56;;;5.57;97.50
16525;BME280;8375;33.594;-117.718;2022-12-10T10:40:58;100803.06;;;5.84;100.00
16525;BME280;8375;33.594;-117.718;2022-12-10T10:43:31;100806.63;;;5.99;100.00
16525;BME280;8375;33.594;-117.718;2022-12-10T10:46:03;100802.28;;;5.82;98.90
16525;BME280;8375;33.594;-117.718;2022-12-10T10:48:33;100802.66;;;5.74;99.25
16525;BME280;8375;33.594;-117.718;2022-12-10T10:51:13;100796.19;;;5.65;99.60
16525;BME280;8375;33.594;-117.718;2022-12-10T10:53:46;100794.81;;;5.58;98.80
16525;BME280;8375;33.594;-117.718;2022-12-10T10:56:18;100784.56;;;5.76;100.00
16525;BME280;8375;33.594;-117.718;2022-12-10T10:58:53;100782.59;;;5.62;100.00
16525;BME280;8375;33.594;-117.718;2022-12-10T11:01:25;100778.31;;;5.62;100.00
16525;BME280;8375;33.594;-117.718;2022-12-10T11:03:58;100772.25;;;5.63;100.00
16525;BME280;8375;33.594;-117.718;2022-12-10T11:06:30;100779.41;;;5.76;100.00
16525;BME280;8375;33.594;-117.718;2022-12-10T11:08:59;100769.16;;;5.74;100.00
16525;BME280;8375;33.594;-117.718;2022-12-10T11:11:34;100768.19;;;5.77;100.00
16525;BME280;8375;33.594;-117.718;2022-12-10T11:14:23;100759.28;;;5.65;100.00
16525;BME280;8375;33.594;-117.718;2022-12-10T11:17:01;100759.38;;;5.63;100.00
16525;BME280;8375;33.594;-117.718;2022-12-10T11:19:31;100760.75;;;5.51;100.00
16525;BME280;8375;33.594;-117.718;2022-12-10T11:24:58;100746.50;;;5.63;100.00
16525;BME280;8375;33.594;-117.718;2022-12-10T11:27:41;100746.09;;;5.71;100.00
16525;BME280;8375;33.594;-117.718;2022-12-10T11:30:17;100734.25;;;5.86;100.00
16525;BME280;8375;33.594;-117.718;2022-12-10T11:33:19;100739.13;;;6.10;100.00
16525;BME280;8375;33.594;-117.718;2022-12-10T11:35:57;100732.75;;;5.99;100.00
16525;BME280;8375;33.594;-117.718;2022-12-10T11:38:30;100729.56;;;5.94;100.00
16525;BME280;8375;33.594;-117.718;2022-12-10T11:41:10;100729.25;;;5.83;100.00
16525;BME280;8375;33.594;-117.718;2022-12-10T11:43:54;100727.47;;;5.83;100.00
16525;BME280;8375;33.594;-117.718;2022-12-10T11:46:44;100730.59;;;6.60;100.00
16525;BME280;8375;33.594;-117.718;2022-12-10T11:49:23;100739.19;;;6.77;100.00
16525;BME280;8375;33.594;-117.718;2022-12-10T11:52:03;100734.84;;;6.62;100.00
16525;BME280;8375;33.594;-117.718;2022-12-10T11:54:58;100733.56;;;6.53;100.00
16525;BME280;8375;33.594;-117.718;2022-12-10T11:57:38;100746.03;;;6.27;99.69
16525;BME280;8375;33.594;-117.718;2022-12-10T12:00:19;100746.72;;;6.13;99.65
16525;BME280;8375;33.594;-117.718;2022-12-10T12:03:15;100751.28;;;5.88;99.62
16525;BME280;8375;33.594;-117.718;2022-12-10T12:06:08;100752.34;;;6.04;100.00
16525;BME280;8375;33.594;-117.718;2022-12-10T12:08:45;100751.94;;;6.11;100.00
16525;BME280;8375;33.594;-117.718;2022-12-10T12:11:29;100757.16;;;5.92;98.75
16525;BME280;8375;33.594;-117.718;2022-12-10T12:14:07;100753.38;;;5.63;97.47
16525;BME280;8375;33.594;-117.718;2022-12-10T12:16:42;100753.66;;;5.56;98.71
16525;BME280;8375;33.594;-117.718;2022-12-10T12:19:14;100765.53;;;5.41;98.34
16525;BME280;8375;33.594;-117.718;2022-12-10T12:21:47;100778.16;;;5.08;97.72
16525;BME280;8375;33.594;-117.718;2022-12-10T12:24:20;100783.31;;;5.08;98.68
16525;BME280;8375;33.594;-117.718;2022-12-10T12:26:54;100776.56;;;5.24;100.00
16525;BME280;8375;33.594;-117.718;2022-12-10T12:29:28;100783.88;;;5.34;100.00
16525;BME280;8375;33.594;-117.718;2022-12-10T12:32:02;100785.88;;;5.27;100.00
16525;BME280;8375;33.594;-117.718;2022-12-10T12:34:42;100791.44;;;5.18;99.63
16525;BME280;8375;33.594;-117.718;2022-12-10T12:37:16;100780.09;;;5.22;99.81
16525;BME280;8375;33.594;-117.718;2022-12-10T12:39:49;100782.28;;;5.12;99.24
16525;BME280;8375;33.594;-117.718;2022-12-10T12:42:24;100777.28;;;5.09;99.41
16525;BME280;8375;33.594;-117.718;2022-12-10T12:45:02;100782.47;;;5.07;100.00
16525;BME280;8375;33.594;-117.718;2022-12-10T12:47:38;100777.59;;;5.01;100.00
16525;BME280;8375;33.594;-117.718;2022-12-10T12:50:24;100778.34;;;5.03;100.00
16525;BME280;8375;33.594;-117.718;2022-12-10T12:52:56;100780.66;;;5.09;100.00
16525;BME280;8375;33.594;-117.718;2022-12-10T12:55:38;100771.41;;;5.05;100.00
16525;BME280;8375;33.594;-117.718;2022-12-10T12:58:21;100767.31;;;5.20;100.00
16525;BME280;8375;33.594;-117.718;2022-12-10T13:00:57;100777.41;;;5.25;100.00
16525;BME280;8375;33.594;-117.718;2022-12-10T13:03:35;100777.97;;;5.32;100.00
16525;BME280;8375;33.594;-117.718;2022-12-10T13:06:22;100777.53;;;5.41;100.00
16525;BME280;8375;33.594;-117.718;2022-12-10T13:09:14;100772.63;;;5.36;100.00
16525;BME280;8375;33.594;-117.718;2022-12-10T13:11:46;100775.88;;;5.40;100.00
16525;BME280;8375;33.594;-117.718;2022-12-10T13:14:36;100779.94;;;5.46;100.00
16525;BME280;8375;33.594;-117.718;2022-12-10T13:17:28;100772.44;;;5.58;100.00
16525;BME280;8375;33.594;-117.718;2022-12-10T13:20:34;100766.38;;;5.60;100.00
16525;BME280;8375;33.594;-117.718;2022-12-10T13:23:05;100774.97;;;5.60;100.00
16525;BME280;8375;33.594;-117.718;2022-12-10T13:25:58;100773.78;;;5.67;100.00
16525;BME280;8375;33.594;-117.718;2022-12-10T13:28:31;100774.53;;;5.69;100.00
16525;BME280;8375;33.594;-117.718;2022-12-10T13:31:17;100775.63;;;5.83;100.00
16525;BME280;8375;33.594;-117.718;2022-12-10T13:33:51;100778.41;;;5.78;100.00
16525;BME280;8375;33.594;-117.718;2022-12-10T13:36:23;100777.59;;;5.78;100.00
16525;BME280;8375;33.594;-117.718;2022-12-10T13:39:10;100784.56;;;5.76;100.00
16525;BME280;8375;33.594;-117.718;2022-12-10T13:41:42;100791.38;;;5.77;100.00
16525;BME280;8375;33.594;-117.718;2022-12-10T13:44:49;100790.03;;;5.87;100.00
16525;BME280;8375;33.594;-117.718;2022-12-10T13:47:27;100790.19;;;5.84;100.00
16525;BME280;8375;33.594;-117.718;2022-12-10T13:50:04;100790.47;;;5.78;100.00
16525;BME280;8375;33.594;-117.718;2022-12-10T13:52:47;100788.53;;;5.64;100.00
16525;BME280;8375;33.594;-117.718;2022-12-10T13:55:25;100789.50;;;5.61;100.00
16525;BME280;8375;33.594;-117.718;2022-12-10T14:01:13;100810.09;;;5.80;100.00
16525;BME280;8375;33.594;-117.718;2022-12-10T14:03:59;100800.81;;;5.95;100.00
16525;BME280;8375;33.594;-117.718;2022-12-10T14:06:35;100810.47;;;6.09;100.00
16525;BME280;8375;33.594;-117.718;2022-12-10T14:09:10;100815.66;;;5.90;100.00
16525;BME280;8375;33.594;-117.718;2022-12-10T14:11:45;100823.25;;;5.74;100.00